sensor_id;sensor_type;location;lat;lon;timestamp;P1;durP1;ratioP1;P2;durP2;ratioP2
74158;SDS011;62511;47.970;11.774;2023-12-20T00:01:46;2.70;;;0.93;;
74158;SDS011;62511;47.970;11.774;2023-12-20T00:04:13;1.77;;;1.00;;
74158;SDS011;62511;47.970;11.774;2023-12-20T00:06:39;1.98;;;1.10;;
74158;SDS011;62511;47.970;11.774;2023-12-20T00:09:06;1.30;;;0.93;;
74158;SDS011;62511;47.970;11.774;2023-12-20T00:11:32;1.70;;;1.10;;
74158;SDS011;62511;47.970;11.774;2023-12-20T00:13:58;1.55;;;1.13;;
74158;SDS011;62511;47.970;11.774;2023-12-20T00:16:24;1.45;;;1.35;;
74158;SDS011;62511;47.970;11.774;2023-12-20T00:18:50;1.77;;;1.48;;
74158;SDS011;62511;47.970;11.774;2023-12-20T00:21:16;1.35;;;1.05;;
74158;SDS011;62511;47.970;11.774;2023-12-20T00:23:43;2.28;;;1.00;;
74158;SDS011;62511;47.970;11.774;2023-12-20T00:26:09;1.63;;;1.38;;
74158;SDS011;62511;47.970;11.774;2023-12-20T00:28:36;1.30;;;1.13;;
74158;SDS011;62511;47.970;11.774;2023-12-20T00:31:02;1.45;;;0.88;;
74158;SDS011;62511;47.970;11.774;2023-12-20T00:33:29;3.33;;;1.02;;
74158;SDS011;62511;47.970;11.774;2023-12-20T00:35:56;3.58;;;1.30;;
74158;SDS011;62511;47.970;11.774;2023-12-20T00:38:22;1.30;;;0.70;;
74158;SDS011;62511;47.970;11.774;2023-12-20T00:40:48;2.20;;;0.80;;
74158;SDS011;62511;47.970;11.774;2023-12-20T00:43:15;2.60;;;1.33;;
74158;SDS011;62511;47.970;11.774;2023-12-20T00:45:41;1.85;;;1.05;;
74158;SDS011;62511;47.970;11.774;2023-12-20T00:48:07;2.85;;;1.25;;
74158;SDS011;62511;47.970;11.774;2023-12-20T00:50:34;2.40;;;1.30;;
74158;SDS011;62511;47.970;11.774;2023-12-20T00:53:00;3.00;;;1.00;;
74158;SDS011;62511;47.970;11.774;2023-12-20T00:55:27;2.17;;;1.20;;
74158;SDS011;62511;47.970;11.774;2023-12-20T00:57:53;2.38;;;1.42;;
74158;SDS011;62511;47.970;11.774;2023-12-20T01:00:19;3.33;;;1.80;;
74158;SDS011;62511;47.970;11.774;2023-12-20T01:02:45;2.28;;;1.38;;
74158;SDS011;62511;47.970;11.774;2023-12-20T01:05:14;2.40;;;1.05;;
74158;SDS011;62511;47.970;11.774;2023-12-20T01:07:40;3.95;;;1.42;;
74158;SDS011;62511;47.970;11.774;2023-12-20T01:10:06;1.35;;;0.85;;
74158;SDS011;62511;47.970;11.774;2023-12-20T01:12:33;1.83;;;1.35;;
74158;SDS011;62511;47.970;11.774;2023-12-20T01:14:59;2.00;;;1.30;;
74158;SDS011;62511;47.970;11.774;2023-12-20T01:17:25;2.33;;;1.00;;
74158;SDS011;62511;47.970;11.774;2023-12-20T01:19:51;2.85;;;1.27;;
74158;SDS011;62511;47.970;11.774;2023-12-20T01:22:17;1.90;;;1.40;;
74158;SDS011;62511;47.970;11.774;2023-12-20T01:24:43;1.50;;;0.80;;
74158;SDS011;62511;47.970;11.774;2023-12-20T01:27:10;1.88;;;1.15;;
74158;SDS011;62511;47.970;11.774;2023-12-20T01:29:36;2.28;;;1.05;;
74158;SDS011;62511;47.970;11.774;2023-12-20T01:32:02;3.33;;;1.25;;
74158;SDS011;62511;47.970;11.774;2023-12-20T01:34:29;1.85;;;1.20;;
74158;SDS011;62511;47.970;11.774;2023-12-20T01:36:56;2.10;;;1.20;;
74158;SDS011;62511;47.970;11.774;2023-12-20T01:39:22;1.20;;;0.63;;
74158;SDS011;62511;47.970;11.774;2023-12-20T01:41:49;1.77;;;1.10;;
74158;SDS011;62511;47.970;11.774;2023-12-20T01:44:15;3.72;;;1.50;;
74158;SDS011;62511;47.970;11.774;2023-12-20T01:46:41;1.13;;;0.82;;
74158;SDS011;62511;47.970;11.774;2023-12-20T01:49:08;2.55;;;1.67;;
74158;SDS011;62511;47.970;11.774;2023-12-20T01:51:34;1.45;;;1.35;;
74158;SDS011;62511;47.970;11.774;2023-12-20T01:54:01;1.60;;;1.10;;
74158;SDS011;62511;47.970;11.774;2023-12-20T01:56:27;2.28;;;1.48;;
74158;SDS011;62511;47.970;11.774;2023-12-20T01:58:54;2.20;;;1.17;;
74158;SDS011;62511;47.970;11.774;2023-12-20T02:01:21;2.30;;;1.25;;
74158;SDS011;62511;47.970;11.774;2023-12-20T02:03:48;1.88;;;1.20;;
74158;SDS011;62511;47.970;11.774;2023-12-20T02:06:15;2.20;;;1.25;;
74158;SDS011;62511;47.970;11.774;2023-12-20T02:08:42;2.08;;;1.13;;
74158;SDS011;62511;47.970;11.774;2023-12-20T02:11:08;1.70;;;0.95;;
74158;SDS011;62511;47.970;11.774;2023-12-20T02:13:34;3.00;;;1.38;;
74158;SDS011;62511;47.970;11.774;2023-12-20T02:16:00;1.92;;;1.30;;
74158;SDS011;62511;47.970;11.774;2023-12-20T02:18:27;2.00;;;1.27;;
74158;SDS011;62511;47.970;11.774;2023-12-20T02:20:53;1.55;;;1.23;;
74158;SDS011;62511;47.970;11.774;2023-12-20T02:23:20;2.72;;;1.25;;
74158;SDS011;62511;47.970;11.774;2023-12-20T02:25:47;2.40;;;1.45;;
74158;SDS011;62511;47.970;11.774;2023-12-20T02:28:13;5.55;;;1.63;;
74158;SDS011;62511;47.970;11.774;2023-12-20T02:30:39;1.83;;;1.13;;
74158;SDS011;62511;47.970;11.774;2023-12-20T02:33:07;2.25;;;1.20;;
74158;SDS011;62511;47.970;11.774;2023-12-20T02:35:36;2.97;;;1.25;;
74158;SDS011;62511;47.970;11.774;2023-12-20T02:38:03;1.23;;;0.80;;
74158;SDS011;62511;47.970;11.774;2023-12-20T02:40:29;2.05;;;1.10;;
74158;SDS011;62511;47.970;11.774;2023-12-20T02:42:55;1.85;;;1.40;;
74158;SDS011;62511;47.970;11.774;2023-12-20T02:45:21;1.77;;;1.50;;
74158;SDS011;62511;47.970;11.774;2023-12-20T02:47:47;2.60;;;1.05;;
74158;SDS011;62511;47.970;11.774;2023-12-20T02:50:13;1.60;;;0.93;;
74158;SDS011;62511;47.970;11.774;2023-12-20T02:52:40;0.93;;;0.70;;
74158;SDS011;62511;47.970;11.774;2023-12-20T02:55:06;1.05;;;0.95;;
74158;SDS011;62511;47.970;11.774;2023-12-20T02:57:33;4.35;;;1.35;;
74158;SDS011;62511;47.970;11.774;2023-12-20T03:00:01;0.85;;;0.85;;
74158;SDS011;62511;47.970;11.774;2023-12-20T03:02:27;1.30;;;1.10;;
74158;SDS011;62511;47.970;11.774;2023-12-20T03:04:54;0.98;;;0.80;;
74158;SDS011;62511;47.970;11.774;2023-12-20T03:07:20;1.73;;;1.13;;
74158;SDS011;62511;47.970;11.774;2023-12-20T03:09:47;1.85;;;0.73;;
74158;SDS011;62511;47.970;11.774;2023-12-20T03:12:13;1.05;;;0.63;;
74158;SDS011;62511;47.970;11.774;2023-12-20T03:14:39;1.15;;;1.00;;
74158;SDS011;62511;47.970;11.774;2023-12-20T03:17:05;1.48;;;0.90;;
74158;SDS011;62511;47.970;11.774;2023-12-20T03:19:31;1.63;;;0.82;;
74158;SDS011;62511;47.970;11.774;2023-12-20T03:21:58;2.42;;;1.30;;
74158;SDS011;62511;47.970;11.774;2023-12-20T03:24:26;1.40;;;1.15;;
74158;SDS011;62511;47.970;11.774;2023-12-20T03:26:52;0.70;;;0.60;;
74158;SDS011;62511;47.970;11.774;2023-12-20T03:29:18;11.73;;;1.75;;
74158;SDS011;62511;47.970;11.774;2023-12-20T03:31:44;1.35;;;1.30;;
74158;SDS011;62511;47.970;11.774;2023-12-20T03:34:11;1.50;;;0.98;;
74158;SDS011;62511;47.970;11.774;2023-12-20T03:36:37;1.33;;;0.80;;
74158;SDS011;62511;47.970;11.774;2023-12-20T03:39:04;0.77;;;0.77;;
74158;SDS011;62511;47.970;11.774;2023-12-20T03:41:30;0.73;;;0.60;;
74158;SDS011;62511;47.970;11.774;2023-12-20T03:43:56;1.42;;;0.98;;
74158;SDS011;62511;47.970;11.774;2023-12-20T03:46:22;1.95;;;0.80;;
74158;SDS011;62511;47.970;11.774;2023-12-20T03:48:48;0.75;;;0.68;;
74158;SDS011;62511;47.970;11.774;2023-12-20T03:51:14;1.50;;;1.00;;
74158;SDS011;62511;47.970;11.774;2023-12-20T03:53:41;1.50;;;0.90;;
74158;SDS011;62511;47.970;11.774;2023-12-20T03:56:07;0.93;;;0.90;;
74158;SDS011;62511;47.970;11.774;2023-12-20T03:58:33;0.60;;;0.55;;
74158;SDS011;62511;47.970;11.774;2023-12-20T04:01:00;0.93;;;0.60;;
74158;SDS011;62511;47.970;11.774;2023-12-20T04:03:26;0.88;;;0.70;;
74158;SDS011;62511;47.970;11.774;2023-12-20T04:05:52;0.65;;;0.43;;
74158;SDS011;62511;47.970;11.774;2023-12-20T04:08:19;0.65;;;0.52;;
74158;SDS011;62511;47.970;11.774;2023-12-20T04:10:46;1.08;;;0.98;;
74158;SDS011;62511;47.970;11.774;2023-12-20T04:13:12;0.70;;;0.70;;
74158;SDS011;62511;47.970;11.774;2023-12-20T04:15:39;0.75;;;0.65;;
74158;SDS011;62511;47.970;11.774;2023-12-20T04:18:05;1.08;;;0.98;;
74158;SDS011;62511;47.970;11.774;2023-12-20T04:20:32;0.43;;;0.40;;
74158;SDS011;62511;47.970;11.774;2023-12-20T04:22:58;0.63;;;0.50;;
74158;SDS011;62511;47.970;11.774;2023-12-20T04:25:24;0.40;;;0.40;;
74158;SDS011;62511;47.970;11.774;2023-12-20T04:27:51;0.77;;;0.60;;
74158;SDS011;62511;47.970;11.774;2023-12-20T04:30:17;0.20;;;0.20;;
74158;SDS011;62511;47.970;11.774;2023-12-20T04:32:43;0.20;;;0.20;;
74158;SDS011;62511;47.970;11.774;2023-12-20T04:35:09;1.90;;;0.70;;
74158;SDS011;62511;47.970;11.774;2023-12-20T04:37:36;0.90;;;0.50;;
74158;SDS011;62511;47.970;11.774;2023-12-20T04:40:02;2.08;;;0.43;;
74158;SDS011;62511;47.970;11.774;2023-12-20T04:42:28;1.63;;;0.70;;
74158;SDS011;62511;47.970;11.774;2023-12-20T04:44:54;0.68;;;0.68;;
74158;SDS011;62511;47.970;11.774;2023-12-20T04:47:21;1.05;;;0.75;;
74158;SDS011;62511;47.970;11.774;2023-12-20T04:49:47;1.00;;;0.45;;
74158;SDS011;62511;47.970;11.774;2023-12-20T04:52:14;1.42;;;0.88;;
74158;SDS011;62511;47.970;11.774;2023-12-20T04:54:40;0.55;;;0.50;;
74158;SDS011;62511;47.970;11.774;2023-12-20T04:57:07;0.40;;;0.40;;
74158;SDS011;62511;47.970;11.774;2023-12-20T04:59:33;0.70;;;0.50;;
74158;SDS011;62511;47.970;11.774;2023-12-20T05:01:59;0.75;;;0.40;;
74158;SDS011;62511;47.970;11.774;2023-12-20T05:04:26;0.52;;;0.43;;
74158;SDS011;62511;47.970;11.774;2023-12-20T05:06:52;1.08;;;0.70;;
74158;SDS011;62511;47.970;11.774;2023-12-20T05:09:19;0.38;;;0.38;;
74158;SDS011;62511;47.970;11.774;2023-12-20T05:11:45;0.60;;;0.60;;
74158;SDS011;62511;47.970;11.774;2023-12-20T05:14:11;0.30;;;0.30;;
74158;SDS011;62511;47.970;11.774;2023-12-20T05:16:37;0.40;;;0.40;;
74158;SDS011;62511;47.970;11.774;2023-12-20T05:19:04;0.45;;;0.45;;
74158;SDS011;62511;47.970;11.774;2023-12-20T05:26:26;0.32;;;0.30;;
74158;SDS011;62511;47.970;11.774;2023-12-20T05:28:52;0.75;;;0.68;;
74158;SDS011;62511;47.970;11.774;2023-12-20T05:31:19;1.40;;;0.70;;
74158;SDS011;62511;47.970;11.774;2023-12-20T05:33:45;1.15;;;0.50;;
74158;SDS011;62511;47.970;11.774;2023-12-20T05:36:11;0.45;;;0.30;;
74158;SDS011;62511;47.970;11.774;2023-12-20T05:38:38;1.20;;;0.80;;
74158;SDS011;62511;47.970;11.774;2023-12-20T05:41:05;1.42;;;0.77;;
74158;SDS011;62511;47.970;11.774;2023-12-20T05:43:31;4.85;;;0.70;;
74158;SDS011;62511;47.970;11.774;2023-12-20T05:45:58;0.35;;;0.35;;
74158;SDS011;62511;47.970;11.774;2023-12-20T05:48:24;1.25;;;0.55;;
74158;SDS011;62511;47.970;11.774;2023-12-20T05:50:50;1.23;;;0.63;;
74158;SDS011;62511;47.970;11.774;2023-12-20T05:53:16;2.03;;;1.00;;
74158;SDS011;62511;47.970;11.774;2023-12-20T05:55:42;2.22;;;1.08;;
74158;SDS011;62511;47.970;11.774;2023-12-20T05:58:09;0.50;;;0.50;;
74158;SDS011;62511;47.970;11.774;2023-12-20T06:00:35;1.02;;;0.60;;
74158;SDS011;62511;47.970;11.774;2023-12-20T06:03:01;1.40;;;1.23;;
74158;SDS011;62511;47.970;11.774;2023-12-20T06:05:27;0.50;;;0.50;;
74158;SDS011;62511;47.970;11.774;2023-12-20T06:07:54;1.00;;;0.47;;
74158;SDS011;62511;47.970;11.774;2023-12-20T06:10:23;0.60;;;0.35;;
74158;SDS011;62511;47.970;11.774;2023-12-20T06:12:49;0.88;;;0.30;;
74158;SDS011;62511;47.970;11.774;2023-12-20T06:15:16;0.50;;;0.50;;
74158;SDS011;62511;47.970;11.774;2023-12-20T06:17:42;0.50;;;0.40;;
74158;SDS011;62511;47.970;11.774;2023-12-20T06:20:09;0.45;;;0.40;;
74158;SDS011;62511;47.970;11.774;2023-12-20T06:22:35;1.52;;;0.85;;
74158;SDS011;62511;47.970;11.774;2023-12-20T06:25:04;0.70;;;0.68;;
74158;SDS011;62511;47.970;11.774;2023-12-20T06:27:30;0.30;;;0.30;;
74158;SDS011;62511;47.970;11.774;2023-12-20T06:29:57;0.77;;;0.77;;
74158;SDS011;62511;47.970;11.774;2023-12-20T06:32:24;0.50;;;0.30;;
74158;SDS011;62511;47.970;11.774;2023-12-20T06:34:54;0.65;;;0.47;;
74158;SDS011;62511;47.970;11.774;2023-12-20T06:37:20;0.45;;;0.40;;
74158;SDS011;62511;47.970;11.774;2023-12-20T06:39:46;0.35;;;0.32;;
74158;SDS011;62511;47.970;11.774;2023-12-20T06:42:13;5.03;;;0.95;;
74158;SDS011;62511;47.970;11.774;2023-12-20T06:44:39;0.25;;;0.25;;
74158;SDS011;62511;47.970;11.774;2023-12-20T06:47:07;0.60;;;0.60;;
74158;SDS011;62511;47.970;11.774;2023-12-20T06:49:33;0.32;;;0.32;;
74158;SDS011;62511;47.970;11.774;2023-12-20T06:52:00;0.30;;;0.30;;
74158;SDS011;62511;47.970;11.774;2023-12-20T06:54:26;0.20;;;0.20;;
74158;SDS011;62511;47.970;11.774;2023-12-20T06:56:54;0.30;;;0.30;;
74158;SDS011;62511;47.970;11.774;2023-12-20T06:59:20;0.40;;;0.40;;
74158;SDS011;62511;47.970;11.774;2023-12-20T07:01:49;0.52;;;0.32;;
74158;SDS011;62511;47.970;11.774;2023-12-20T07:04:16;0.57;;;0.30;;
74158;SDS011;62511;47.970;11.774;2023-12-20T07:06:45;0.20;;;0.20;;
74158;SDS011;62511;47.970;11.774;2023-12-20T07:09:12;0.30;;;0.30;;
74158;SDS011;62511;47.970;11.774;2023-12-20T07:11:39;0.47;;;0.10;;
74158;SDS011;62511;47.970;11.774;2023-12-20T07:14:05;0.75;;;0.63;;
74158;SDS011;62511;47.970;11.774;2023-12-20T07:16:40;1.33;;;0.98;;
74158;SDS011;62511;47.970;11.774;2023-12-20T07:19:06;1.45;;;0.80;;
74158;SDS011;62511;47.970;11.774;2023-12-20T07:21:32;3.92;;;1.10;;
74158;SDS011;62511;47.970;11.774;2023-12-20T07:23:58;3.72;;;1.25;;
74158;SDS011;62511;47.970;11.774;2023-12-20T07:26:25;1.73;;;0.90;;
74158;SDS011;62511;47.970;11.774;2023-12-20T07:28:51;0.40;;;0.40;;
74158;SDS011;62511;47.970;11.774;2023-12-20T07:31:18;0.93;;;0.60;;
74158;SDS011;62511;47.970;11.774;2023-12-20T07:33:44;0.80;;;0.60;;
74158;SDS011;62511;47.970;11.774;2023-12-20T07:36:10;0.40;;;0.40;;
74158;SDS011;62511;47.970;11.774;2023-12-20T07:38:37;0.20;;;0.15;;
74158;SDS011;62511;47.970;11.774;2023-12-20T07:41:03;0.50;;;0.50;;
74158;SDS011;62511;47.970;11.774;2023-12-20T07:43:30;0.35;;;0.32;;
74158;SDS011;62511;47.970;11.774;2023-12-20T07:45:56;0.22;;;0.22;;
74158;SDS011;62511;47.970;11.774;2023-12-20T07:48:21;0.30;;;0.30;;
74158;SDS011;62511;47.970;11.774;2023-12-20T07:50:49;0.25;;;0.25;;
74158;SDS011;62511;47.970;11.774;2023-12-20T07:53:15;0.60;;;0.40;;
74158;SDS011;62511;47.970;11.774;2023-12-20T07:55:41;0.25;;;0.25;;
74158;SDS011;62511;47.970;11.774;2023-12-20T07:58:08;0.20;;;0.20;;
74158;SDS011;62511;47.970;11.774;2023-12-20T08:00:34;0.88;;;0.40;;
74158;SDS011;62511;47.970;11.774;2023-12-20T08:03:00;0.28;;;0.28;;
74158;SDS011;62511;47.970;11.774;2023-12-20T08:05:28;0.30;;;0.30;;
74158;SDS011;62511;47.970;11.774;2023-12-20T08:07:54;0.20;;;0.20;;
74158;SDS011;62511;47.970;11.774;2023-12-20T08:10:20;1.23;;;1.13;;
74158;SDS011;62511;47.970;11.774;2023-12-20T08:12:46;0.20;;;0.20;;
74158;SDS011;62511;47.970;11.774;2023-12-20T08:15:12;0.40;;;0.35;;
74158;SDS011;62511;47.970;11.774;2023-12-20T08:17:39;0.57;;;0.52;;
74158;SDS011;62511;47.970;11.774;2023-12-20T08:20:06;0.35;;;0.17;;
74158;SDS011;62511;47.970;11.774;2023-12-20T08:22:32;1.40;;;0.30;;
74158;SDS011;62511;47.970;11.774;2023-12-20T08:24:58;0.65;;;0.57;;
74158;SDS011;62511;47.970;11.774;2023-12-20T08:27:24;0.60;;;0.60;;
74158;SDS011;62511;47.970;11.774;2023-12-20T08:29:51;0.30;;;0.30;;
74158;SDS011;62511;47.970;11.774;2023-12-20T08:32:16;0.52;;;0.38;;
74158;SDS011;62511;47.970;11.774;2023-12-20T08:34:42;0.57;;;0.57;;
74158;SDS011;62511;47.970;11.774;2023-12-20T08:37:08;0.50;;;0.50;;
74158;SDS011;62511;47.970;11.774;2023-12-20T08:39:34;0.30;;;0.30;;
74158;SDS011;62511;47.970;11.774;2023-12-20T08:42:00;1.55;;;0.70;;
74158;SDS011;62511;47.970;11.774;2023-12-20T08:44:26;0.52;;;0.20;;
74158;SDS011;62511;47.970;11.774;2023-12-20T08:46:53;0.32;;;0.30;;
74158;SDS011;62511;47.970;11.774;2023-12-20T08:49:22;0.95;;;0.50;;
74158;SDS011;62511;47.970;11.774;2023-12-20T08:51:48;0.32;;;0.32;;
74158;SDS011;62511;47.970;11.774;2023-12-20T08:54:14;0.40;;;0.40;;
74158;SDS011;62511;47.970;11.774;2023-12-20T08:56:42;0.80;;;0.50;;
74158;SDS011;62511;47.970;11.774;2023-12-20T08:59:08;0.55;;;0.40;;
74158;SDS011;62511;47.970;11.774;2023-12-20T09:01:36;0.22;;;0.22;;
74158;SDS011;62511;47.970;11.774;2023-12-20T09:04:02;0.17;;;0.17;;
74158;SDS011;62511;47.970;11.774;2023-12-20T09:06:28;0.20;;;0.20;;
74158;SDS011;62511;47.970;11.774;2023-12-20T09:08:54;0.50;;;0.50;;
74158;SDS011;62511;47.970;11.774;2023-12-20T09:11:20;0.52;;;0.40;;
74158;SDS011;62511;47.970;11.774;2023-12-20T09:13:50;0.60;;;0.40;;
74158;SDS011;62511;47.970;11.774;2023-12-20T09:16:16;0.30;;;0.30;;
74158;SDS011;62511;47.970;11.774;2023-12-20T09:18:42;0.50;;;0.50;;
74158;SDS011;62511;47.970;11.774;2023-12-20T09:21:08;1.40;;;0.90;;
74158;SDS011;62511;47.970;11.774;2023-12-20T09:23:34;1.30;;;0.68;;
74158;SDS011;62511;47.970;11.774;2023-12-20T09:26:01;0.30;;;0.30;;
74158;SDS011;62511;47.970;11.774;2023-12-20T09:28:29;0.85;;;0.40;;
74158;SDS011;62511;47.970;11.774;2023-12-20T09:30:58;0.30;;;0.30;;
74158;SDS011;62511;47.970;11.774;2023-12-20T09:33:24;0.30;;;0.30;;
74158;SDS011;62511;47.970;11.774;2023-12-20T09:35:50;0.73;;;0.32;;
74158;SDS011;62511;47.970;11.774;2023-12-20T09:38:16;0.28;;;0.25;;
74158;SDS011;62511;47.970;11.774;2023-12-20T09:40:42;0.50;;;0.30;;
74158;SDS011;62511;47.970;11.774;2023-12-20T09:43:10;0.65;;;0.65;;
74158;SDS011;62511;47.970;11.774;2023-12-20T09:45:37;0.50;;;0.50;;
74158;SDS011;62511;47.970;11.774;2023-12-20T09:48:05;0.20;;;0.10;;
74158;SDS011;62511;47.970;11.774;2023-12-20T09:50:31;0.43;;;0.32;;
74158;SDS011;62511;47.970;11.774;2023-12-20T09:52:58;0.50;;;0.35;;
74158;SDS011;62511;47.970;11.774;2023-12-20T09:55:26;0.13;;;0.10;;
74158;SDS011;62511;47.970;11.774;2023-12-20T09:57:53;0.47;;;0.40;;
74158;SDS011;62511;47.970;11.774;2023-12-20T10:00:19;0.60;;;0.50;;
74158;SDS011;62511;47.970;11.774;2023-12-20T10:02:49;0.10;;;0.10;;
74158;SDS011;62511;47.970;11.774;2023-12-20T10:05:16;0.38;;;0.38;;
74158;SDS011;62511;47.970;11.774;2023-12-20T10:07:46;0.20;;;0.20;;
74158;SDS011;62511;47.970;11.774;2023-12-20T10:10:13;2.60;;;0.77;;
74158;SDS011;62511;47.970;11.774;2023-12-20T10:12:41;0.93;;;0.30;;
74158;SDS011;62511;47.970;11.774;2023-12-20T10:15:26;0.35;;;0.35;;
74158;SDS011;62511;47.970;11.774;2023-12-20T10:17:52;0.95;;;0.40;;
74158;SDS011;62511;47.970;11.774;2023-12-20T10:20:19;0.40;;;0.40;;
74158;SDS011;62511;47.970;11.774;2023-12-20T10:22:45;0.55;;;0.45;;
74158;SDS011;62511;47.970;11.774;2023-12-20T10:25:12;0.43;;;0.43;;
74158;SDS011;62511;47.970;11.774;2023-12-20T10:27:38;0.32;;;0.32;;
74158;SDS011;62511;47.970;11.774;2023-12-20T10:30:04;0.20;;;0.20;;
74158;SDS011;62511;47.970;11.774;2023-12-20T10:32:31;0.40;;;0.40;;
74158;SDS011;62511;47.970;11.774;2023-12-20T10:34:57;0.80;;;0.60;;
74158;SDS011;62511;47.970;11.774;2023-12-20T10:37:24;0.15;;;0.15;;
74158;SDS011;62511;47.970;11.774;2023-12-20T10:39:51;0.70;;;0.32;;
74158;SDS011;62511;47.970;11.774;2023-12-20T10:42:20;0.30;;;0.30;;
74158;SDS011;62511;47.970;11.774;2023-12-20T10:44:47;0.75;;;0.20;;
74158;SDS011;62511;47.970;11.774;2023-12-20T10:47:14;0.30;;;0.30;;
74158;SDS011;62511;47.970;11.774;2023-12-20T10:49:40;0.32;;;0.32;;
74158;SDS011;62511;47.970;11.774;2023-12-20T10:52:07;0.40;;;0.40;;
74158;SDS011;62511;47.970;11.774;2023-12-20T10:54:34;0.22;;;0.22;;
74158;SDS011;62511;47.970;11.774;2023-12-20T10:57:00;0.20;;;0.20;;
74158;SDS011;62511;47.970;11.774;2023-12-20T10:59:30;0.50;;;0.30;;
74158;SDS011;62511;47.970;11.774;2023-12-20T11:01:58;0.75;;;0.30;;
74158;SDS011;62511;47.970;11.774;2023-12-20T11:04:45;0.20;;;0.10;;
74158;SDS011;62511;47.970;11.774;2023-12-20T11:07:17;0.50;;;0.30;;
74158;SDS011;62511;47.970;11.774;2023-12-20T11:09:47;0.20;;;0.20;;
74158;SDS011;62511;47.970;11.774;2023-12-20T11:12:17;0.20;;;0.20;;
74158;SDS011;62511;47.970;11.774;2023-12-20T11:17:13;0.30;;;0.20;;
74158;SDS011;62511;47.970;11.774;2023-12-20T11:22:27;0.52;;;0.30;;
74158;SDS011;62511;47.970;11.774;2023-12-20T11:24:53;0.10;;;0.10;;
74158;SDS011;62511;47.970;11.774;2023-12-20T11:27:20;0.63;;;0.20;;
74158;SDS011;62511;47.970;11.774;2023-12-20T11:29:53;0.20;;;0.20;;
74158;SDS011;62511;47.970;11.774;2023-12-20T11:37:22;0.25;;;0.20;;
74158;SDS011;62511;47.970;11.774;2023-12-20T11:39:55;0.20;;;0.20;;
74158;SDS011;62511;47.970;11.774;2023-12-20T11:44:47;0.13;;;0.13;;
74158;SDS011;62511;47.970;11.774;2023-12-20T11:47:13;0.32;;;0.32;;
74158;SDS011;62511;47.970;11.774;2023-12-20T11:49:40;0.38;;;0.38;;
74158;SDS011;62511;47.970;11.774;2023-12-20T11:52:07;0.10;;;0.10;;
74158;SDS011;62511;47.970;11.774;2023-12-20T11:54:33;0.20;;;0.20;;
74158;SDS011;62511;47.970;11.774;2023-12-20T11:56:59;0.32;;;0.32;;
74158;SDS011;62511;47.970;11.774;2023-12-20T11:59:26;0.30;;;0.30;;
74158;SDS011;62511;47.970;11.774;2023-12-20T12:01:52;0.22;;;0.22;;
74158;SDS011;62511;47.970;11.774;2023-12-20T12:04:20;0.10;;;0.10;;
74158;SDS011;62511;47.970;11.774;2023-12-20T12:06:46;0.30;;;0.30;;
74158;SDS011;62511;47.970;11.774;2023-12-20T12:09:12;0.20;;;0.20;;
74158;SDS011;62511;47.970;11.774;2023-12-20T12:11:38;0.20;;;0.20;;
74158;SDS011;62511;47.970;11.774;2023-12-20T12:14:04;0.30;;;0.30;;
74158;SDS011;62511;47.970;11.774;2023-12-20T12:16:30;0.52;;;0.38;;
74158;SDS011;62511;47.970;11.774;2023-12-20T12:18:59;0.30;;;0.30;;
74158;SDS011;62511;47.970;11.774;2023-12-20T12:21:25;0.80;;;0.40;;
74158;SDS011;62511;47.970;11.774;2023-12-20T12:23:51;0.30;;;0.30;;
74158;SDS011;62511;47.970;11.774;2023-12-20T12:26:18;0.20;;;0.20;;
74158;SDS011;62511;47.970;11.774;2023-12-20T12:28:44;0.10;;;0.10;;
74158;SDS011;62511;47.970;11.774;2023-12-20T12:31:13;0.30;;;0.20;;
74158;SDS011;62511;47.970;11.774;2023-12-20T12:33:43;0.30;;;0.30;;
74158;SDS011;62511;47.970;11.774;2023-12-20T12:36:11;0.38;;;0.32;;
74158;SDS011;62511;47.970;11.774;2023-12-20T12:38:41;0.30;;;0.30;;
74158;SDS011;62511;47.970;11.774;2023-12-20T12:41:07;0.40;;;0.40;;
74158;SDS011;62511;47.970;11.774;2023-12-20T12:43:35;1.48;;;0.30;;
74158;SDS011;62511;47.970;11.774;2023-12-20T12:46:01;0.30;;;0.30;;
74158;SDS011;62511;47.970;11.774;2023-12-20T12:48:27;0.00;;;0.00;;
74158;SDS011;62511;47.970;11.774;2023-12-20T12:50:53;0.40;;;0.13;;
74158;SDS011;62511;47.970;11.774;2023-12-20T12:53:19;0.30;;;0.30;;
74158;SDS011;62511;47.970;11.774;2023-12-20T12:55:45;0.20;;;0.20;;
74158;SDS011;62511;47.970;11.774;2023-12-20T12:58:11;0.20;;;0.20;;
74158;SDS011;62511;47.970;11.774;2023-12-20T13:00:37;0.13;;;0.10;;
74158;SDS011;62511;47.970;11.774;2023-12-20T13:03:03;0.30;;;0.30;;
74158;SDS011;62511;47.970;11.774;2023-12-20T13:05:29;0.20;;;0.20;;
74158;SDS011;62511;47.970;11.774;2023-12-20T13:07:56;0.73;;;0.50;;
74158;SDS011;62511;47.970;11.774;2023-12-20T13:10:23;0.20;;;0.20;;
74158;SDS011;62511;47.970;11.774;2023-12-20T13:12:49;0.30;;;0.30;;
74158;SDS011;62511;47.970;11.774;2023-12-20T13:15:15;0.25;;;0.25;;
74158;SDS011;62511;47.970;11.774;2023-12-20T13:17:41;0.20;;;0.20;;
74158;SDS011;62511;47.970;11.774;2023-12-20T13:20:07;0.65;;;0.52;;
74158;SDS011;62511;47.970;11.774;2023-12-20T13:22:33;1.23;;;0.57;;
74158;SDS011;62511;47.970;11.774;2023-12-20T13:25:00;0.32;;;0.22;;
74158;SDS011;62511;47.970;11.774;2023-12-20T13:27:28;0.50;;;0.50;;
74158;SDS011;62511;47.970;11.774;2023-12-20T13:29:54;0.40;;;0.40;;
74158;SDS011;62511;47.970;11.774;2023-12-20T13:32:20;0.28;;;0.20;;
74158;SDS011;62511;47.970;11.774;2023-12-20T13:34:46;0.47;;;0.40;;
74158;SDS011;62511;47.970;11.774;2023-12-20T13:37:12;0.65;;;0.65;;
74158;SDS011;62511;47.970;11.774;2023-12-20T13:39:39;3.55;;;0.90;;
74158;SDS011;62511;47.970;11.774;2023-12-20T13:42:06;0.55;;;0.55;;
74158;SDS011;62511;47.970;11.774;2023-12-20T13:44:32;0.50;;;0.50;;
74158;SDS011;62511;47.970;11.774;2023-12-20T13:46:59;0.63;;;0.52;;
74158;SDS011;62511;47.970;11.774;2023-12-20T13:49:26;0.68;;;0.52;;
74158;SDS011;62511;47.970;11.774;2023-12-20T13:51:53;0.73;;;0.73;;
74158;SDS011;62511;47.970;11.774;2023-12-20T13:54:19;0.50;;;0.30;;
74158;SDS011;62511;47.970;11.774;2023-12-20T13:56:47;1.02;;;0.60;;
74158;SDS011;62511;47.970;11.774;2023-12-20T13:59:13;0.35;;;0.35;;
74158;SDS011;62511;47.970;11.774;2023-12-20T14:01:40;0.25;;;0.25;;
74158;SDS011;62511;47.970;11.774;2023-12-20T14:04:06;0.65;;;0.30;;
74158;SDS011;62511;47.970;11.774;2023-12-20T14:06:32;0.43;;;0.43;;
74158;SDS011;62511;47.970;11.774;2023-12-20T14:08:58;0.30;;;0.30;;
74158;SDS011;62511;47.970;11.774;2023-12-20T14:11:28;1.17;;;0.40;;
74158;SDS011;62511;47.970;11.774;2023-12-20T14:13:54;0.68;;;0.63;;
74158;SDS011;62511;47.970;11.774;2023-12-20T14:16:23;2.38;;;0.93;;
74158;SDS011;62511;47.970;11.774;2023-12-20T14:18:49;0.95;;;0.75;;
74158;SDS011;62511;47.970;11.774;2023-12-20T14:21:22;3.38;;;1.65;;
74158;SDS011;62511;47.970;11.774;2023-12-20T14:23:49;0.30;;;0.30;;
74158;SDS011;62511;47.970;11.774;2023-12-20T14:26:14;1.08;;;0.73;;
74158;SDS011;62511;47.970;11.774;2023-12-20T14:28:41;1.05;;;0.60;;
74158;SDS011;62511;47.970;11.774;2023-12-20T14:31:09;0.68;;;0.68;;
74158;SDS011;62511;47.970;11.774;2023-12-20T14:33:39;2.13;;;1.13;;
74158;SDS011;62511;47.970;11.774;2023-12-20T14:36:07;2.25;;;1.25;;
74158;SDS011;62511;47.970;11.774;2023-12-20T14:38:33;1.00;;;0.90;;
74158;SDS011;62511;47.970;11.774;2023-12-20T14:41:00;6.15;;;1.05;;
74158;SDS011;62511;47.970;11.774;2023-12-20T14:43:28;1.17;;;0.93;;
74158;SDS011;62511;47.970;11.774;2023-12-20T14:45:55;1.08;;;0.93;;
74158;SDS011;62511;47.970;11.774;2023-12-20T14:48:21;0.40;;;0.40;;